createdAt,value
2018-02-18T00:00:56.632Z,30.15
2018-02-18T00:01:59.990Z,30.58
2018-02-18T00:03:03.490Z,27.50
2018-02-18T00:04:06.977Z,27.42
2018-02-18T00:05:10.316Z,25.40
2018-02-18T00:06:13.674Z,28.90
2018-02-18T00:07:17.071Z,27.80
2018-02-18T00:08:20.386Z,29.35
2018-02-18T00:09:23.721Z,26.73
2018-02-18T00:10:27.080Z,33.80
2018-02-18T00:11:30.494Z,26.27
2018-02-18T00:12:33.808Z,32.92
2018-02-18T00:13:37.184Z,34.88
2018-02-18T00:14:40.961Z,26.20
2018-02-18T00:15:44.409Z,29.33
2018-02-18T00:16:47.914Z,30.52
2018-02-18T00:17:51.232Z,29.98
2018-02-18T00:18:54.664Z,26.48
2018-02-18T00:19:58.111Z,27.37
2018-02-18T00:21:01.510Z,31.10
2018-02-18T00:22:04.886Z,33.10
2018-02-18T00:23:08.269Z,27.70
2018-02-18T00:24:11.638Z,29.87
2018-02-18T00:25:15.043Z,33.90
2018-02-18T00:26:18.459Z,34.58
2018-02-18T00:27:21.852Z,27.37
2018-02-18T00:28:25.169Z,34.33
2018-02-18T00:29:28.587Z,35.00
2018-02-18T00:30:31.946Z,28.58
2018-02-18T00:31:35.257Z,23.48
2018-02-18T00:32:38.574Z,29.92
2018-02-18T00:33:42.016Z,27.30
2018-02-18T00:34:45.385Z,23.70
2018-02-18T00:35:48.776Z,25.98
2018-02-18T00:36:52.141Z,33.58
2018-02-18T00:37:55.452Z,32.20
2018-02-18T00:38:58.828Z,26.83
2018-02-18T00:40:02.198Z,28.20
2018-02-18T00:41:05.534Z,23.42
2018-02-18T00:42:08.869Z,34.78
2018-02-18T00:43:12.241Z,31.70
2018-02-18T00:44:15.555Z,25.33
2018-02-18T00:45:19.004Z,28.87
2018-02-18T00:46:22.360Z,28.23
2018-02-18T00:47:25.793Z,27.10
2018-02-18T00:48:29.293Z,30.45
2018-02-18T00:49:32.702Z,27.67
2018-02-18T00:50:36.047Z,31.85
2018-02-18T00:51:39.507Z,26.23
2018-02-18T00:52:42.820Z,23.08
2018-02-18T00:53:46.163Z,28.25
2018-02-18T00:54:49.531Z,25.65
2018-02-18T00:55:52.925Z,27.65
2018-02-18T00:56:56.246Z,23.45
2018-02-18T00:57:59.619Z,31.35
2018-02-18T00:59:02.981Z,31.92
2018-02-18T01:00:06.545Z,24.77
2018-02-18T01:01:10.067Z,36.90
2018-02-18T01:02:13.405Z,30.33
2018-02-18T01:03:17.039Z,25.27
2018-02-18T01:04:20.493Z,31.02
2018-02-18T01:05:23.914Z,31.90
2018-02-18T01:06:27.376Z,28.90
2018-02-18T01:07:30.833Z,31.67
2018-02-18T01:08:34.980Z,31.25
2018-02-18T01:09:38.352Z,24.85
2018-02-18T01:10:41.720Z,33.13
2018-02-18T01:11:45.103Z,31.67
2018-02-18T01:12:48.658Z,26.48
2018-02-18T01:13:52.019Z,30.27
2018-02-18T01:14:55.464Z,24.02
2018-02-18T01:15:58.928Z,34.10
2018-02-18T01:17:02.282Z,29.98
2018-02-18T01:18:05.631Z,33.28
2018-02-18T01:19:09.568Z,33.20
2018-02-18T01:20:12.921Z,37.60
2018-02-18T01:21:16.280Z,22.08
2018-02-18T01:22:19.788Z,22.48
2018-02-18T01:23:23.159Z,28.87
2018-02-18T01:24:26.495Z,29.60
2018-02-18T01:25:29.845Z,31.70
2018-02-18T01:26:33.255Z,25.70
2018-02-18T01:27:36.729Z,36.67
2018-02-18T01:28:40.133Z,28.38
2018-02-18T01:29:43.436Z,24.70
2018-02-18T01:30:46.796Z,21.95
2018-02-18T01:31:50.122Z,29.20
2018-02-18T01:32:53.474Z,27.65
2018-02-18T01:33:57.005Z,33.17
2018-02-18T01:35:00.452Z,27.50
2018-02-18T01:36:03.884Z,30.52
2018-02-18T01:37:07.165Z,26.55
2018-02-18T01:38:10.647Z,25.70
2018-02-18T01:39:14.023Z,22.23
2018-02-18T01:40:17.716Z,27.48
2018-02-18T01:41:21.063Z,30.15
2018-02-18T01:42:24.422Z,21.95
2018-02-18T01:43:27.995Z,33.90
2018-02-18T01:44:31.341Z,25.40
2018-02-18T01:45:34.817Z,30.08
2018-02-18T01:46:38.316Z,29.60
2018-02-18T01:47:42.449Z,30.67
2018-02-18T01:48:45.796Z,25.50
2018-02-18T01:49:49.284Z,31.08
2018-02-18T01:50:52.612Z,27.20
2018-02-18T01:51:56.119Z,29.58
2018-02-18T01:52:59.501Z,27.85
2018-02-18T01:54:02.880Z,33.88
2018-02-18T01:55:06.398Z,28.60
2018-02-18T01:56:09.791Z,35.85
2018-02-18T01:57:13.133Z,29.83
2018-02-18T01:58:16.480Z,26.55
2018-02-18T01:59:19.949Z,32.13
2018-02-18T02:00:23.341Z,26.87
2018-02-18T02:01:26.752Z,27.20
2018-02-18T02:02:30.137Z,28.48
2018-02-18T02:03:33.578Z,26.55
2018-02-18T02:04:36.946Z,24.67
2018-02-18T02:05:40.287Z,28.77
2018-02-18T02:06:43.882Z,27.00
2018-02-18T02:07:47.262Z,30.80
2018-02-18T02:08:50.681Z,23.70
2018-02-18T02:09:54.027Z,38.50
2018-02-18T02:10:57.598Z,28.00
2018-02-18T02:12:00.909Z,26.62
2018-02-18T02:13:04.336Z,28.25
2018-02-18T02:14:08.499Z,25.65
2018-02-18T02:15:11.826Z,25.20
2018-02-18T02:16:15.169Z,28.10
2018-02-18T02:17:18.584Z,32.50
2018-02-18T02:18:21.963Z,28.77
2018-02-18T02:19:25.403Z,27.87
2018-02-18T02:20:29.100Z,32.05
2018-02-18T02:21:32.521Z,30.58
2018-02-18T02:22:35.895Z,26.02
2018-02-18T02:23:39.230Z,36.13
2018-02-18T02:24:42.613Z,27.05
2018-02-18T02:25:46.022Z,35.08
2018-02-18T02:26:49.345Z,24.42
2018-02-18T02:27:52.768Z,30.65
2018-02-18T02:28:56.090Z,28.85
2018-02-18T02:29:59.743Z,32.47
2018-02-18T02:31:03.075Z,24.52
2018-02-18T02:32:06.512Z,25.33
2018-02-18T02:33:09.981Z,30.98
2018-02-18T02:34:13.338Z,30.95
2018-02-18T02:35:16.698Z,30.98
2018-02-18T02:36:20.093Z,27.40
2018-02-18T02:37:23.411Z,25.70
2018-02-18T02:38:26.813Z,32.05
2018-02-18T02:39:30.154Z,27.15
2018-02-18T02:40:33.543Z,27.20
2018-02-18T02:41:36.937Z,32.53
2018-02-18T02:42:40.269Z,32.00
2018-02-18T02:43:43.606Z,27.27
2018-02-18T02:44:47.056Z,28.50
2018-02-18T02:45:50.388Z,30.05
2018-02-18T02:46:53.750Z,29.52
2018-02-18T02:47:57.753Z,26.40
2018-02-18T02:49:01.118Z,30.70
2018-02-18T02:50:04.491Z,40.72
2018-02-18T02:51:07.891Z,26.25
2018-02-18T02:52:11.338Z,28.73
2018-02-18T02:53:14.742Z,26.58
2018-02-18T02:54:18.204Z,27.25
2018-02-18T02:55:21.609Z,25.85
2018-02-18T02:56:25.034Z,28.27
2018-02-18T02:57:29.141Z,30.85
2018-02-18T02:58:32.605Z,29.48
2018-02-18T02:59:35.928Z,26.98
2018-02-18T03:00:39.299Z,30.15
2018-02-18T03:01:42.749Z,33.42
2018-02-18T03:02:46.159Z,24.75
2018-02-18T03:03:49.676Z,30.98
2018-02-18T03:04:53.142Z,31.00
2018-02-18T03:05:56.546Z,33.20
2018-02-18T03:06:59.871Z,28.60
2018-02-18T03:08:03.740Z,30.15
2018-02-18T03:09:07.045Z,25.48
2018-02-18T03:10:10.428Z,30.30
2018-02-18T03:11:13.780Z,29.27
2018-02-18T03:12:17.125Z,39.53
2018-02-18T03:13:20.896Z,27.48
2018-02-18T03:14:24.332Z,21.60
2018-02-18T03:15:27.762Z,31.25
2018-02-18T03:16:31.273Z,37.08
2018-02-18T03:17:34.700Z,30.25
2018-02-18T03:18:38.139Z,27.90
2018-02-18T03:19:41.488Z,23.50
2018-02-18T03:20:45.793Z,29.92
2018-02-18T03:21:49.263Z,27.95
2018-02-18T03:22:53.469Z,29.67
2018-02-18T03:23:57.233Z,38.83
2018-02-18T03:25:00.586Z,25.30
2018-02-18T03:26:03.962Z,25.30
2018-02-18T03:27:07.456Z,28.12
2018-02-18T03:28:10.900Z,41.00
2018-02-18T03:29:14.646Z,25.12
2018-02-18T03:30:18.019Z,31.10
2018-02-18T03:31:21.326Z,29.60
2018-02-18T03:32:24.781Z,26.77
2018-02-18T03:33:28.117Z,25.55
2018-02-18T03:34:31.487Z,26.60
2018-02-18T03:35:34.920Z,28.02
2018-02-18T03:36:38.279Z,27.80
2018-02-18T03:37:41.626Z,30.40
2018-02-18T03:38:44.998Z,27.73
2018-02-18T03:39:48.373Z,33.50
2018-02-18T03:40:51.926Z,30.45
2018-02-18T03:41:55.290Z,24.12
2018-02-18T03:42:58.677Z,27.35
2018-02-18T03:44:02.062Z,33.42
2018-02-18T03:45:05.444Z,32.47
2018-02-18T03:46:08.860Z,30.40
2018-02-18T03:47:12.165Z,27.50
2018-02-18T03:48:15.608Z,33.38
2018-02-18T03:49:18.982Z,26.92
2018-02-18T03:50:22.330Z,27.50
2018-02-18T03:51:25.634Z,37.88
2018-02-18T03:52:29.022Z,28.83
2018-02-18T03:53:32.502Z,30.25
2018-02-18T03:54:35.924Z,31.02
2018-02-18T03:55:39.306Z,25.40
2018-02-18T03:56:42.668Z,37.33
2018-02-18T03:57:46.141Z,27.95
2018-02-18T03:58:49.688Z,34.50
2018-02-18T03:59:52.997Z,26.42
2018-02-18T04:00:56.389Z,33.40
2018-02-18T04:01:59.734Z,28.55
2018-02-18T04:03:03.114Z,32.30
2018-02-18T04:04:06.472Z,27.80
2018-02-18T04:05:09.857Z,31.90
2018-02-18T04:06:13.289Z,32.33
2018-02-18T04:07:17.155Z,27.73
2018-02-18T04:08:20.728Z,26.45
2018-02-18T04:09:24.148Z,30.52
2018-02-18T04:10:27.588Z,30.12
2018-02-18T04:11:30.944Z,29.10
2018-02-18T04:12:34.256Z,33.33
2018-02-18T04:13:37.664Z,31.45
2018-02-18T04:14:41.027Z,32.40
2018-02-18T04:15:44.329Z,29.87
2018-02-18T04:16:47.694Z,28.98
2018-02-18T04:17:51.075Z,36.40
2018-02-18T04:18:54.425Z,29.70
2018-02-18T04:19:57.753Z,31.62
2018-02-18T04:21:01.184Z,30.62
2018-02-18T04:22:04.662Z,33.05
2018-02-18T04:23:07.976Z,30.80
2018-02-18T04:24:11.326Z,34.42
2018-02-18T04:25:14.828Z,26.45
2018-02-18T04:26:18.278Z,36.00
2018-02-18T04:27:21.666Z,28.38
2018-02-18T04:28:25.035Z,31.10
2018-02-18T04:29:28.436Z,32.65
2018-02-18T04:30:31.902Z,30.17
2018-02-18T04:31:35.348Z,31.55
2018-02-18T04:32:38.780Z,29.83
2018-02-18T04:33:42.181Z,33.70
2018-02-18T04:34:45.629Z,21.85
2018-02-18T04:35:49.064Z,24.30
2018-02-18T04:36:52.600Z,34.30
2018-02-18T04:37:56.020Z,39.53
2018-02-18T04:38:59.435Z,26.90
2018-02-18T04:40:02.783Z,28.25
2018-02-18T04:41:06.205Z,32.50
2018-02-18T04:42:09.535Z,27.13
2018-02-18T04:43:13.069Z,33.67
2018-02-18T04:44:16.423Z,36.67
2018-02-18T04:45:19.797Z,40.28
2018-02-18T04:46:23.301Z,31.92
2018-02-18T04:47:26.616Z,29.48
2018-02-18T04:48:30.420Z,24.05
2018-02-18T04:49:34.699Z,34.30
2018-02-18T04:50:41.558Z,30.95
2018-02-18T04:51:45.025Z,30.77
2018-02-18T04:52:48.448Z,35.10
2018-02-18T04:53:51.954Z,33.33
2018-02-18T04:54:55.374Z,34.22
2018-02-18T04:55:59.102Z,29.35
2018-02-18T04:57:02.496Z,36.45
2018-02-18T04:58:05.882Z,31.40
2018-02-18T04:59:09.220Z,31.05
2018-02-18T05:01:22.216Z,38.05
2018-02-18T05:02:25.650Z,26.95
2018-02-18T05:03:29.054Z,30.42
2018-02-18T05:04:32.469Z,38.03
2018-02-18T05:05:35.853Z,32.67
2018-02-18T05:06:40.002Z,39.03
2018-02-18T05:07:43.387Z,37.90
2018-02-18T05:08:46.832Z,34.72
2018-02-18T05:09:50.236Z,29.35
2018-02-18T05:10:53.601Z,33.10
2018-02-18T05:11:56.974Z,36.53
2018-02-18T05:13:00.428Z,39.75
2018-02-18T05:14:03.734Z,35.20
2018-02-18T05:15:08.077Z,29.08
2018-02-18T05:16:11.380Z,28.70
2018-02-18T05:17:14.755Z,32.22
2018-02-18T05:18:18.232Z,35.10
2018-02-18T05:19:21.561Z,28.50
2018-02-18T05:20:24.959Z,40.28
2018-02-18T05:21:28.345Z,33.42
2018-02-18T05:22:31.686Z,28.00
2018-02-18T05:23:35.055Z,37.50
2018-02-18T05:24:38.544Z,37.28
2018-02-18T05:25:41.937Z,38.45
2018-02-18T05:26:45.505Z,29.60
2018-02-18T05:27:48.928Z,29.10
2018-02-18T05:28:52.458Z,33.25
2018-02-18T05:29:55.806Z,41.85
2018-02-18T05:30:59.197Z,40.10
2018-02-18T05:32:02.528Z,30.35
2018-02-18T05:33:05.900Z,36.88
2018-02-18T05:34:09.228Z,34.30
2018-02-18T05:35:13.465Z,36.72
2018-02-18T05:36:16.795Z,32.72
2018-02-18T05:37:20.245Z,36.65
2018-02-18T05:38:23.867Z,36.90
2018-02-18T05:39:27.481Z,41.20
2018-02-18T05:40:30.872Z,31.08
2018-02-18T05:41:34.224Z,33.60
2018-02-18T05:42:37.574Z,38.38
2018-02-18T05:43:40.949Z,38.03
2018-02-18T05:44:44.259Z,35.75
2018-02-18T05:45:47.594Z,35.25
2018-02-18T05:46:51.097Z,42.88
2018-02-18T05:47:55.004Z,34.28
2018-02-18T05:48:58.398Z,32.38
2018-02-18T05:50:01.731Z,33.50
2018-02-18T05:51:05.071Z,34.47
2018-02-18T05:52:08.430Z,42.00
2018-02-18T05:53:11.824Z,41.72
2018-02-18T05:54:15.220Z,43.45
2018-02-18T05:55:18.744Z,34.20
2018-02-18T05:56:22.094Z,36.45
2018-02-18T05:57:25.472Z,40.67
2018-02-18T05:58:28.815Z,36.90
2018-02-18T05:59:32.163Z,35.95
2018-02-18T06:00:35.494Z,34.45
2018-02-18T06:01:38.865Z,42.55
2018-02-18T06:02:42.260Z,37.83
2018-02-18T06:03:45.589Z,50.30
2018-02-18T06:04:48.924Z,36.35
2018-02-18T06:05:52.345Z,37.88
2018-02-18T06:06:55.799Z,36.45
2018-02-18T06:07:59.251Z,31.58
2018-02-18T06:09:02.705Z,43.30
2018-02-18T06:10:06.145Z,48.13
2018-02-18T06:11:09.520Z,41.85
2018-02-18T06:12:12.813Z,37.60
2018-02-18T06:13:16.184Z,44.30
2018-02-18T06:14:19.537Z,38.75
2018-02-18T06:15:23.313Z,39.05
2018-02-18T06:16:26.909Z,35.95
2018-02-18T06:17:30.240Z,39.72
2018-02-18T06:18:33.572Z,31.65
2018-02-18T06:19:36.874Z,36.00
2018-02-18T06:20:40.480Z,38.53
2018-02-18T06:21:43.885Z,34.50
2018-02-18T06:22:47.305Z,39.60
2018-02-18T06:23:50.700Z,38.03
2018-02-18T06:24:54.029Z,39.60
2018-02-18T06:25:57.356Z,35.45
2018-02-18T06:27:00.778Z,40.35
2018-02-18T06:28:04.149Z,45.50
2018-02-18T06:29:07.521Z,45.28
2018-02-18T06:30:10.899Z,32.75
2018-02-18T06:31:14.282Z,46.95
2018-02-18T06:32:17.685Z,38.22
2018-02-18T06:33:21.209Z,33.22
2018-02-18T06:34:24.622Z,49.15
2018-02-18T06:35:27.984Z,41.22
2018-02-18T06:36:31.348Z,39.67
2018-02-18T06:37:34.909Z,44.45
2018-02-18T06:38:38.280Z,37.92
2018-02-18T06:39:41.607Z,38.00
2018-02-18T06:40:44.984Z,40.30
2018-02-18T06:41:48.339Z,39.47
2018-02-18T06:42:52.045Z,43.35
2018-02-18T06:43:55.356Z,42.90
2018-02-18T06:44:58.851Z,39.58
2018-02-18T06:46:02.193Z,40.63
2018-02-18T06:47:05.542Z,39.15
2018-02-18T06:48:08.899Z,44.75
2018-02-18T06:49:13.344Z,40.45
2018-02-18T06:50:16.805Z,38.47
2018-02-18T06:51:20.201Z,39.15
2018-02-18T06:52:23.533Z,43.42
2018-02-18T06:53:27.116Z,47.95
2018-02-18T06:54:31.313Z,38.67
2018-02-18T06:55:34.719Z,39.75
2018-02-18T06:56:38.028Z,36.75
2018-02-18T06:57:41.462Z,43.13
2018-02-18T06:58:44.810Z,38.40
2018-02-18T06:59:48.257Z,40.58
2018-02-18T07:00:51.900Z,40.88
2018-02-18T07:01:55.275Z,39.92
2018-02-18T07:02:58.656Z,47.83
2018-02-18T07:04:02.049Z,43.83
2018-02-18T07:05:05.512Z,45.22
2018-02-18T07:06:08.946Z,39.70
2018-02-18T07:07:12.297Z,42.62
2018-02-18T07:08:15.657Z,42.08
2018-02-18T07:09:19.238Z,40.58
2018-02-18T07:10:23.446Z,40.60
2018-02-18T07:11:26.885Z,38.88
2018-02-18T07:12:30.245Z,47.08
2018-02-18T07:13:33.604Z,42.38
2018-02-18T07:14:37.104Z,39.17
2018-02-18T07:15:41.399Z,38.85
2018-02-18T07:16:45.622Z,43.47
2018-02-18T07:17:48.964Z,43.17
2018-02-18T07:18:52.396Z,41.88
2018-02-18T07:19:56.506Z,41.20
2018-02-18T07:20:59.926Z,42.83
2018-02-18T07:22:03.385Z,41.22
2018-02-18T07:23:06.745Z,40.20
2018-02-18T07:24:10.097Z,40.42
2018-02-18T07:25:13.404Z,36.78
2018-02-18T07:26:16.723Z,43.92
2018-02-18T07:27:20.189Z,39.50
2018-02-18T07:28:23.713Z,45.08
2018-02-18T07:29:27.090Z,41.03
2018-02-18T07:30:30.419Z,44.03
2018-02-18T07:31:33.724Z,37.70
2018-02-18T07:32:37.107Z,52.22
2018-02-18T07:33:40.928Z,46.90
2018-02-18T07:34:44.321Z,37.28
2018-02-18T07:35:47.653Z,42.85
2018-02-18T07:36:50.948Z,48.65
2018-02-18T07:37:54.492Z,38.83
2018-02-18T07:38:58.626Z,39.38
2018-02-18T07:40:01.961Z,48.63
2018-02-18T07:41:05.587Z,52.13
2018-02-18T07:42:08.932Z,44.45
2018-02-18T07:43:12.281Z,35.25
2018-02-18T07:44:15.666Z,47.17
2018-02-18T07:45:19.140Z,45.80
2018-02-18T07:46:22.496Z,42.10
2018-02-18T07:47:25.896Z,44.63
2018-02-18T07:48:29.281Z,37.72
2018-02-18T07:49:32.699Z,39.10
2018-02-18T07:50:36.144Z,48.55
2018-02-18T07:51:39.519Z,39.22
2018-02-18T07:52:42.943Z,41.30
2018-02-18T07:53:46.376Z,42.22
2018-02-18T07:54:49.802Z,39.83
2018-02-18T07:55:53.216Z,39.45
2018-02-18T07:56:56.577Z,44.10
2018-02-18T07:57:59.899Z,47.03
2018-02-18T07:59:03.831Z,40.67
2018-02-18T08:00:07.285Z,40.40
2018-02-18T08:01:11.324Z,44.80
2018-02-18T08:02:14.704Z,50.25
2018-02-18T08:03:18.150Z,41.22
2018-02-18T08:04:21.542Z,39.45
2018-02-18T08:05:24.961Z,39.13
2018-02-18T08:06:28.351Z,44.65
2018-02-18T08:07:31.695Z,45.33
2018-02-18T08:08:35.019Z,38.00
2018-02-18T08:09:38.454Z,44.85
2018-02-18T08:10:41.751Z,41.17
2018-02-18T08:11:45.069Z,43.08
2018-02-18T08:12:48.508Z,39.42
2018-02-18T08:13:51.893Z,42.95
2018-02-18T08:14:55.379Z,42.55
2018-02-18T08:15:58.728Z,41.00
2018-02-18T08:17:02.072Z,42.20
2018-02-18T08:18:05.402Z,43.22
2018-02-18T08:19:08.839Z,46.35
2018-02-18T08:20:12.206Z,49.63
2018-02-18T08:21:15.869Z,41.78
2018-02-18T08:22:19.270Z,47.25
2018-02-18T08:23:22.732Z,48.60
2018-02-18T08:24:26.069Z,46.75
2018-02-18T08:25:29.461Z,42.45
2018-02-18T08:26:32.881Z,40.50
2018-02-18T08:27:36.299Z,42.55
2018-02-18T08:28:39.643Z,45.63
2018-02-18T08:29:43.017Z,48.78
2018-02-18T08:30:46.386Z,36.58
2018-02-18T08:31:49.829Z,40.55
2018-02-18T08:32:53.274Z,43.10
2018-02-18T08:33:56.636Z,48.97
2018-02-18T08:35:00.024Z,48.55
2018-02-18T08:36:04.262Z,44.72
2018-02-18T08:37:08.632Z,42.97
2018-02-18T08:38:12.027Z,40.80
2018-02-18T08:39:15.458Z,41.70
2018-02-18T08:40:19.442Z,43.58
2018-02-18T08:41:23.429Z,41.55
2018-02-18T08:42:27.055Z,41.55
2018-02-18T08:43:31.536Z,46.28
2018-02-18T08:44:35.913Z,40.03
2018-02-18T08:45:39.523Z,42.75
2018-02-18T08:46:42.953Z,43.13
2018-02-18T08:47:46.935Z,48.25
2018-02-18T08:48:50.316Z,44.08
2018-02-18T08:49:54.414Z,45.70
2018-02-18T08:50:58.031Z,46.65
2018-02-18T08:52:01.404Z,45.05
2018-02-18T08:53:04.752Z,41.47
2018-02-18T08:54:08.137Z,43.70
2018-02-18T08:55:11.540Z,40.60
2018-02-18T08:56:15.113Z,44.88
2018-02-18T08:57:18.837Z,40.45
2018-02-18T08:58:22.189Z,43.33
2018-02-18T08:59:25.919Z,50.08
2018-02-18T09:00:29.265Z,39.25
2018-02-18T09:01:32.585Z,38.70
2018-02-18T09:02:35.989Z,43.20
2018-02-18T09:03:39.458Z,44.33
2018-02-18T09:04:42.842Z,45.58
2018-02-18T09:05:46.338Z,43.28
2018-02-18T09:06:49.709Z,42.78
2018-02-18T09:07:53.224Z,42.13
2018-02-18T09:08:56.804Z,45.78
2018-02-18T09:10:01.470Z,51.03
2018-02-18T09:11:04.818Z,43.63
2018-02-18T09:12:08.937Z,42.03
2018-02-18T09:13:12.335Z,41.53
2018-02-18T09:14:15.961Z,45.42
2018-02-18T09:15:19.414Z,37.38
2018-02-18T09:16:23.080Z,46.28
2018-02-18T09:17:26.478Z,41.50
2018-02-18T09:18:29.884Z,42.50
2018-02-18T09:19:34.183Z,44.70
2018-02-18T09:20:37.560Z,47.22
2018-02-18T09:21:40.883Z,47.20
2018-02-18T09:22:44.294Z,46.00
2018-02-18T09:23:47.754Z,45.38
2018-02-18T09:24:51.104Z,44.13
2018-02-18T09:25:54.488Z,47.15
2018-02-18T09:26:57.858Z,52.28
2018-02-18T09:28:01.208Z,41.63
2018-02-18T09:29:04.744Z,45.12
2018-02-18T09:30:08.683Z,48.67
2018-02-18T09:31:12.097Z,42.88
2018-02-18T09:32:15.688Z,45.80
2018-02-18T09:33:19.144Z,51.40
2018-02-18T09:34:22.900Z,47.90
2018-02-18T09:35:26.230Z,45.92
2018-02-18T09:36:29.790Z,43.67
2018-02-18T09:37:33.157Z,39.05
2018-02-18T09:38:36.618Z,42.25
2018-02-18T09:39:40.044Z,46.45
2018-02-18T09:40:43.508Z,46.35
2018-02-18T09:41:46.934Z,51.47
2018-02-18T09:42:50.345Z,48.20
2018-02-18T09:43:53.929Z,46.85
2018-02-18T09:44:57.368Z,45.58
2018-02-18T09:46:01.357Z,46.75
2018-02-18T09:47:05.610Z,48.42
2018-02-18T09:48:08.931Z,44.80
2018-02-18T09:49:12.260Z,45.00
2018-02-18T09:50:15.816Z,41.25
2018-02-18T09:51:19.155Z,48.35
2018-02-18T09:52:22.723Z,47.47
2018-02-18T09:53:26.099Z,41.50
2018-02-18T09:54:29.467Z,48.53
2018-02-18T09:55:32.832Z,49.17
2018-02-18T09:56:36.171Z,45.92
2018-02-18T09:57:39.568Z,48.75
2018-02-18T09:58:42.868Z,48.15
2018-02-18T09:59:46.419Z,44.13
2018-02-18T10:00:49.800Z,55.28
2018-02-18T10:01:53.413Z,48.90
2018-02-18T10:02:56.818Z,45.38
2018-02-18T10:04:00.238Z,46.37
2018-02-18T10:05:03.616Z,46.17
2018-02-18T10:06:06.956Z,51.75
2018-02-18T10:07:10.296Z,50.20
2018-02-18T10:08:15.637Z,43.85
2018-02-18T10:09:19.066Z,55.50
2018-02-18T10:10:22.403Z,45.00
2018-02-18T10:11:25.753Z,46.65
2018-02-18T10:12:29.098Z,56.42
2018-02-18T10:13:32.848Z,49.28
2018-02-18T10:14:36.172Z,51.67
2018-02-18T10:15:39.609Z,41.95
2018-02-18T10:16:43.032Z,49.60
2018-02-18T10:17:46.565Z,49.00
2018-02-18T10:18:50.147Z,44.28
2018-02-18T10:19:53.709Z,50.28
2018-02-18T10:20:57.108Z,45.95
2018-02-18T10:22:00.564Z,45.72
2018-02-18T10:23:03.902Z,45.72
2018-02-18T10:24:07.219Z,40.88
2018-02-18T10:25:10.583Z,43.38
2018-02-18T10:26:14.030Z,45.88
2018-02-18T10:27:17.574Z,49.13
2018-02-18T10:28:21.046Z,47.13
2018-02-18T10:29:24.341Z,44.38
2018-02-18T10:30:27.992Z,45.15
2018-02-18T10:31:31.244Z,40.92
2018-02-18T10:32:34.623Z,51.22
2018-02-18T10:33:38.055Z,40.33
2018-02-18T10:34:42.330Z,46.35
2018-02-18T10:35:45.714Z,45.88
2018-02-18T10:36:49.037Z,46.92
2018-02-18T10:37:52.536Z,47.95
2018-02-18T10:38:56.915Z,47.22
2018-02-18T10:40:00.249Z,58.83
2018-02-18T10:41:03.562Z,45.08
2018-02-18T10:42:06.926Z,49.80
2018-02-18T10:43:10.327Z,47.88
2018-02-18T10:44:13.949Z,43.38
2018-02-18T10:45:17.902Z,50.00
2018-02-18T10:46:21.783Z,42.13
2018-02-18T10:47:25.108Z,45.70
2018-02-18T10:48:28.481Z,45.72
2018-02-18T10:49:31.892Z,47.47
2018-02-18T10:50:35.453Z,52.97
2018-02-18T10:51:38.768Z,44.47
2018-02-18T10:52:42.171Z,45.08
2018-02-18T10:53:45.498Z,53.90
2018-02-18T10:54:49.806Z,42.28
2018-02-18T10:55:53.103Z,47.55
2018-02-18T10:56:56.497Z,44.33
2018-02-18T10:57:59.862Z,46.50
2018-02-18T10:59:03.229Z,45.70
2018-02-18T11:00:06.610Z,49.28
2018-02-18T11:01:09.984Z,45.83
2018-02-18T11:02:13.373Z,48.10
2018-02-18T11:03:16.801Z,47.10
2018-02-18T11:04:20.545Z,46.85
2018-02-18T11:05:23.913Z,45.33
2018-02-18T11:06:27.373Z,44.63
2018-02-18T11:07:30.846Z,41.05
2018-02-18T11:08:34.194Z,39.80
2018-02-18T11:09:37.699Z,44.80
2018-02-18T11:10:41.070Z,41.78
2018-02-18T11:11:44.443Z,43.10
2018-02-18T11:12:47.809Z,46.83
2018-02-18T11:13:52.139Z,41.63
2018-02-18T11:14:55.673Z,40.28
2018-02-18T11:15:59.247Z,41.88
2018-02-18T11:17:02.597Z,49.92
2018-02-18T11:18:06.763Z,46.10
2018-02-18T11:19:10.250Z,46.13
2018-02-18T11:20:13.827Z,44.72
2018-02-18T11:21:17.907Z,47.80
2018-02-18T11:22:22.299Z,50.10
2018-02-18T11:23:25.693Z,45.30
2018-02-18T11:24:29.005Z,45.12
2018-02-18T11:25:32.727Z,52.50
2018-02-18T11:26:36.128Z,47.03
2018-02-18T11:27:39.533Z,47.92
2018-02-18T11:28:43.031Z,45.67
2018-02-18T11:29:46.388Z,47.30
2018-02-18T11:30:49.740Z,55.28
2018-02-18T11:31:53.089Z,44.70
2018-02-18T11:32:56.422Z,42.70
2018-02-18T11:33:59.797Z,47.03
2018-02-18T11:35:03.143Z,46.30
2018-02-18T11:36:06.565Z,42.45
2018-02-18T11:37:09.869Z,47.00
2018-02-18T11:38:13.394Z,44.97
2018-02-18T11:39:16.697Z,44.13
2018-02-18T11:40:20.111Z,43.35
2018-02-18T11:41:23.552Z,43.15
2018-02-18T11:42:26.884Z,45.70
2018-02-18T11:43:30.260Z,40.15
2018-02-18T11:44:33.697Z,39.95
2018-02-18T11:45:37.011Z,45.55
2018-02-18T11:46:40.461Z,46.50
2018-02-18T11:47:43.792Z,44.92
2018-02-18T11:48:47.367Z,41.35
2018-02-18T11:49:50.798Z,46.70
2018-02-18T11:50:54.355Z,51.33
2018-02-18T11:51:57.852Z,45.33
2018-02-18T11:53:01.162Z,41.35
2018-02-18T11:54:04.706Z,46.83
2018-02-18T11:55:08.063Z,47.45
2018-02-18T11:56:11.525Z,44.03
2018-02-18T11:57:14.974Z,45.08
2018-02-18T11:58:18.493Z,47.05
2018-02-18T11:59:21.890Z,44.40
2018-02-18T12:00:25.468Z,49.25
2018-02-18T12:01:28.870Z,48.72
2018-02-18T12:02:32.216Z,47.13
2018-02-18T12:03:35.561Z,42.13
2018-02-18T12:04:38.962Z,44.83
2018-02-18T12:05:42.349Z,48.72
2018-02-18T12:06:45.818Z,43.72
2018-02-18T12:07:49.423Z,44.90
2018-02-18T12:08:52.909Z,41.88
2018-02-18T12:09:56.276Z,40.47
2018-02-18T12:10:59.698Z,45.50
2018-02-18T12:12:03.797Z,44.30
2018-02-18T12:13:07.506Z,40.80
2018-02-18T12:14:10.913Z,44.53
2018-02-18T12:15:14.339Z,47.28
2018-02-18T12:16:18.043Z,47.83
2018-02-18T12:17:21.427Z,44.58
2018-02-18T12:18:24.961Z,43.05
2018-02-18T12:19:28.466Z,42.22
2018-02-18T12:20:31.881Z,46.75
2018-02-18T12:21:35.179Z,39.47
2018-02-18T12:22:38.577Z,44.17
2018-02-18T12:23:41.940Z,39.83
2018-02-18T12:24:45.349Z,44.55
2018-02-18T12:25:48.651Z,40.30
2018-02-18T12:26:52.021Z,40.95
2018-02-18T12:27:55.430Z,42.20
2018-02-18T12:28:58.774Z,47.62
2018-02-18T12:30:02.181Z,40.75
2018-02-18T12:31:05.631Z,42.72
2018-02-18T12:32:09.093Z,46.13
2018-02-18T12:33:12.663Z,48.17
2018-02-18T12:34:19.027Z,43.20
2018-02-18T12:35:22.357Z,48.53
2018-02-18T12:36:26.505Z,44.85
2018-02-18T12:37:29.889Z,44.83
2018-02-18T12:38:33.259Z,40.50
2018-02-18T12:39:36.605Z,41.88
2018-02-18T12:40:40.110Z,46.65
2018-02-18T12:41:44.104Z,39.78
2018-02-18T12:42:47.565Z,36.50
2018-02-18T12:43:51.221Z,44.13
2018-02-18T12:44:57.592Z,40.95
2018-02-18T12:46:01.051Z,41.92
2018-02-18T12:47:04.512Z,35.97
2018-02-18T12:48:07.826Z,48.15
2018-02-18T12:49:11.173Z,45.97
2018-02-18T12:50:14.589Z,46.10
2018-02-18T12:51:18.235Z,39.15
2018-02-18T12:52:21.750Z,37.92
2018-02-18T12:53:25.090Z,43.05
2018-02-18T12:54:28.594Z,41.75
2018-02-18T12:55:32.157Z,43.50
2018-02-18T12:56:35.542Z,37.10
2018-02-18T12:57:39.320Z,45.63
2018-02-18T12:58:42.606Z,38.33
2018-02-18T12:59:46.021Z,42.25
2018-02-18T13:00:49.505Z,54.33
2018-02-18T13:01:52.921Z,48.08
2018-02-18T13:02:56.366Z,39.65
2018-02-18T13:03:59.748Z,40.75
2018-02-18T13:05:03.208Z,52.28
2018-02-18T13:06:06.681Z,39.47
2018-02-18T13:07:10.147Z,43.05
2018-02-18T13:08:13.498Z,44.55
2018-02-18T13:09:17.063Z,48.25
2018-02-18T13:10:20.568Z,41.92
2018-02-18T13:11:24.216Z,47.28
2018-02-18T13:12:27.622Z,50.75
2018-02-18T13:13:30.965Z,45.03
2018-02-18T13:14:34.282Z,39.70
2018-02-18T13:15:37.990Z,43.47
2018-02-18T13:16:41.454Z,41.53
2018-02-18T13:17:45.684Z,44.83
2018-02-18T13:18:49.328Z,34.78
2018-02-18T13:19:53.289Z,37.42
2018-02-18T13:20:56.728Z,52.67
2018-02-18T13:22:00.081Z,48.25
2018-02-18T13:23:03.516Z,50.42
2018-02-18T13:24:06.905Z,37.90
2018-02-18T13:25:10.281Z,38.45
2018-02-18T13:26:13.597Z,38.85
2018-02-18T13:27:17.153Z,40.50
2018-02-18T13:28:20.589Z,39.97
2018-02-18T13:29:24.446Z,43.42
2018-02-18T13:30:27.761Z,36.97
2018-02-18T13:31:31.073Z,36.85
2018-02-18T13:32:34.492Z,39.83
2018-02-18T13:33:38.007Z,41.53
2018-02-18T13:34:41.350Z,44.03
2018-02-18T13:35:44.699Z,46.03
2018-02-18T13:36:48.050Z,41.72
2018-02-18T13:37:51.547Z,44.90
2018-02-18T13:38:54.878Z,54.03